sensor_id;sensor_type;location;lat;lon;timestamp;temperature;humidity
41437;DHT22;27178;49.460;10.850;2023-11-22T00:01:13;9.60;89.30
41437;DHT22;27178;49.460;10.850;2023-11-22T00:03:43;9.60;89.30
41437;DHT22;27178;49.460;10.850;2023-11-22T00:06:12;9.60;89.10
41437;DHT22;27178;49.460;10.850;2023-11-22T00:08:40;9.60;89.20
41437;DHT22;27178;49.460;10.850;2023-11-22T00:11:09;9.50;89.00
41437;DHT22;27178;49.460;10.850;2023-11-22T00:13:37;9.50;89.00
41437;DHT22;27178;49.460;10.850;2023-11-22T00:16:06;9.50;89.10
41437;DHT22;27178;49.460;10.850;2023-11-22T00:18:35;9.50;88.80
41437;DHT22;27178;49.460;10.850;2023-11-22T00:21:07;9.50;88.90
41437;DHT22;27178;49.460;10.850;2023-11-22T00:23:36;9.40;88.90
41437;DHT22;27178;49.460;10.850;2023-11-22T00:26:05;9.40;88.90
41437;DHT22;27178;49.460;10.850;2023-11-22T00:28:34;9.30;88.60
41437;DHT22;27178;49.460;10.850;2023-11-22T00:31:03;9.30;88.40
41437;DHT22;27178;49.460;10.850;2023-11-22T00:33:31;9.30;88.60
41437;DHT22;27178;49.460;10.850;2023-11-22T00:36:02;9.30;88.40
41437;DHT22;27178;49.460;10.850;2023-11-22T00:38:32;9.30;88.60
41437;DHT22;27178;49.460;10.850;2023-11-22T00:41:03;9.20;88.70
41437;DHT22;27178;49.460;10.850;2023-11-22T00:43:32;9.20;88.40
41437;DHT22;27178;49.460;10.850;2023-11-22T00:46:01;9.20;88.10
41437;DHT22;27178;49.460;10.850;2023-11-22T00:48:29;9.20;87.80
41437;DHT22;27178;49.460;10.850;2023-11-22T00:50:58;9.20;87.80
41437;DHT22;27178;49.460;10.850;2023-11-22T00:53:26;9.20;87.80
41437;DHT22;27178;49.460;10.850;2023-11-22T00:55:56;9.10;87.60
41437;DHT22;27178;49.460;10.850;2023-11-22T00:58:25;9.10;87.50
41437;DHT22;27178;49.460;10.850;2023-11-22T01:00:54;9.10;87.10
41437;DHT22;27178;49.460;10.850;2023-11-22T01:03:22;9.10;86.90
41437;DHT22;27178;49.460;10.850;2023-11-22T01:05:51;9.10;87.10
41437;DHT22;27178;49.460;10.850;2023-11-22T01:08:19;9.00;86.80
41437;DHT22;27178;49.460;10.850;2023-11-22T01:10:49;9.00;86.70
41437;DHT22;27178;49.460;10.850;2023-11-22T01:13:18;9.00;86.60
41437;DHT22;27178;49.460;10.850;2023-11-22T01:15:49;8.90;86.30
41437;DHT22;27178;49.460;10.850;2023-11-22T01:18:17;8.90;86.00
41437;DHT22;27178;49.460;10.850;2023-11-22T01:20:46;8.90;86.00
41437;DHT22;27178;49.460;10.850;2023-11-22T01:23:15;8.80;85.90
41437;DHT22;27178;49.460;10.850;2023-11-22T01:25:44;8.80;85.90
41437;DHT22;27178;49.460;10.850;2023-11-22T01:28:12;8.70;85.80
41437;DHT22;27178;49.460;10.850;2023-11-22T01:30:43;8.70;85.70
41437;DHT22;27178;49.460;10.850;2023-11-22T01:33:12;8.70;85.90
41437;DHT22;27178;49.460;10.850;2023-11-22T01:35:41;8.70;85.90
41437;DHT22;27178;49.460;10.850;2023-11-22T01:38:10;8.60;85.70
41437;DHT22;27178;49.460;10.850;2023-11-22T01:40:43;8.60;85.80
41437;DHT22;27178;49.460;10.850;2023-11-22T01:43:14;8.60;85.70
41437;DHT22;27178;49.460;10.850;2023-11-22T01:45:45;8.50;85.90
41437;DHT22;27178;49.460;10.850;2023-11-22T01:48:14;8.50;86.20
41437;DHT22;27178;49.460;10.850;2023-11-22T01:50:43;8.50;86.40
41437;DHT22;27178;49.460;10.850;2023-11-22T01:53:12;8.50;86.30
41437;DHT22;27178;49.460;10.850;2023-11-22T01:55:42;8.50;86.30
41437;DHT22;27178;49.460;10.850;2023-11-22T01:58:12;8.50;86.30
41437;DHT22;27178;49.460;10.850;2023-11-22T02:00:47;8.40;86.00
41437;DHT22;27178;49.460;10.850;2023-11-22T02:03:17;8.40;86.00
41437;DHT22;27178;49.460;10.850;2023-11-22T02:05:45;8.40;86.00
41437;DHT22;27178;49.460;10.850;2023-11-22T02:08:14;8.40;86.20
41437;DHT22;27178;49.460;10.850;2023-11-22T02:10:43;8.40;86.20
41437;DHT22;27178;49.460;10.850;2023-11-22T02:13:12;8.30;86.30
41437;DHT22;27178;49.460;10.850;2023-11-22T02:15:40;8.30;86.10
41437;DHT22;27178;49.460;10.850;2023-11-22T02:18:10;8.30;85.90
41437;DHT22;27178;49.460;10.850;2023-11-22T02:20:40;8.30;85.60
41437;DHT22;27178;49.460;10.850;2023-11-22T02:23:10;8.30;85.60
41437;DHT22;27178;49.460;10.850;2023-11-22T02:25:39;8.30;85.20
41437;DHT22;27178;49.460;10.850;2023-11-22T02:28:07;8.30;86.20
41437;DHT22;27178;49.460;10.850;2023-11-22T02:30:36;8.30;85.60
41437;DHT22;27178;49.460;10.850;2023-11-22T02:33:04;8.20;85.50
41437;DHT22;27178;49.460;10.850;2023-11-22T02:35:33;8.20;85.90
41437;DHT22;27178;49.460;10.850;2023-11-22T02:38:01;8.20;85.70
41437;DHT22;27178;49.460;10.850;2023-11-22T02:40:31;8.20;85.60
41437;DHT22;27178;49.460;10.850;2023-11-22T02:42:59;8.20;85.10
41437;DHT22;27178;49.460;10.850;2023-11-22T02:45:32;8.20;85.10
41437;DHT22;27178;49.460;10.850;2023-11-22T02:48:01;8.20;85.50
41437;DHT22;27178;49.460;10.850;2023-11-22T02:50:30;8.20;85.70
41437;DHT22;27178;49.460;10.850;2023-11-22T02:53:00;8.20;85.20
41437;DHT22;27178;49.460;10.850;2023-11-22T02:55:31;8.20;85.10
41437;DHT22;27178;49.460;10.850;2023-11-22T02:57:59;8.10;85.40
41437;DHT22;27178;49.460;10.850;2023-11-22T03:00:27;8.20;84.90
41437;DHT22;27178;49.460;10.850;2023-11-22T03:02:56;8.10;84.80
41437;DHT22;27178;49.460;10.850;2023-11-22T03:05:25;8.10;84.90
41437;DHT22;27178;49.460;10.850;2023-11-22T03:07:53;8.10;85.10
41437;DHT22;27178;49.460;10.850;2023-11-22T03:10:21;8.10;85.10
41437;DHT22;27178;49.460;10.850;2023-11-22T03:12:51;8.10;84.80
41437;DHT22;27178;49.460;10.850;2023-11-22T03:15:21;8.10;84.40
41437;DHT22;27178;49.460;10.850;2023-11-22T03:17:49;8.00;84.50
41437;DHT22;27178;49.460;10.850;2023-11-22T03:20:18;8.10;84.60
41437;DHT22;27178;49.460;10.850;2023-11-22T03:22:46;8.00;84.60
41437;DHT22;27178;49.460;10.850;2023-11-22T03:25:15;8.00;84.80
41437;DHT22;27178;49.460;10.850;2023-11-22T03:27:45;8.00;84.80
41437;DHT22;27178;49.460;10.850;2023-11-22T03:30:15;8.00;84.70
41437;DHT22;27178;49.460;10.850;2023-11-22T03:32:44;8.00;84.70
41437;DHT22;27178;49.460;10.850;2023-11-22T03:35:12;8.00;84.80
41437;DHT22;27178;49.460;10.850;2023-11-22T03:37:41;8.00;84.90
41437;DHT22;27178;49.460;10.850;2023-11-22T03:40:10;8.00;84.90
41437;DHT22;27178;49.460;10.850;2023-11-22T03:42:41;8.00;85.30
41437;DHT22;27178;49.460;10.850;2023-11-22T03:45:09;8.00;85.10
41437;DHT22;27178;49.460;10.850;2023-11-22T03:47:40;7.90;85.10
41437;DHT22;27178;49.460;10.850;2023-11-22T03:50:09;7.90;85.20
41437;DHT22;27178;49.460;10.850;2023-11-22T03:52:38;7.90;85.30
41437;DHT22;27178;49.460;10.850;2023-11-22T03:55:07;7.90;85.00
41437;DHT22;27178;49.460;10.850;2023-11-22T03:57:36;7.90;85.00
41437;DHT22;27178;49.460;10.850;2023-11-22T04:00:05;7.90;84.90
41437;DHT22;27178;49.460;10.850;2023-11-22T04:02:37;7.90;84.80
41437;DHT22;27178;49.460;10.850;2023-11-22T04:05:09;7.90;84.70
41437;DHT22;27178;49.460;10.850;2023-11-22T04:07:38;7.90;85.00
41437;DHT22;27178;49.460;10.850;2023-11-22T04:10:07;7.90;85.10
41437;DHT22;27178;49.460;10.850;2023-11-22T04:12:35;7.80;85.30
41437;DHT22;27178;49.460;10.850;2023-11-22T04:15:05;7.80;84.90
41437;DHT22;27178;49.460;10.850;2023-11-22T04:17:36;7.80;84.50
41437;DHT22;27178;49.460;10.850;2023-11-22T04:20:09;7.80;84.40
41437;DHT22;27178;49.460;10.850;2023-11-22T04:22:43;7.80;84.50
41437;DHT22;27178;49.460;10.850;2023-11-22T04:25:12;7.80;84.50
41437;DHT22;27178;49.460;10.850;2023-11-22T04:27:41;7.80;84.60
41437;DHT22;27178;49.460;10.850;2023-11-22T04:30:11;7.80;85.00
41437;DHT22;27178;49.460;10.850;2023-11-22T04:32:41;7.80;85.10
41437;DHT22;27178;49.460;10.850;2023-11-22T04:35:11;7.80;84.80
41437;DHT22;27178;49.460;10.850;2023-11-22T04:37:40;7.80;84.80
41437;DHT22;27178;49.460;10.850;2023-11-22T04:40:11;7.80;84.80
41437;DHT22;27178;49.460;10.850;2023-11-22T04:42:41;7.80;84.90
41437;DHT22;27178;49.460;10.850;2023-11-22T04:45:10;7.80;84.90
41437;DHT22;27178;49.460;10.850;2023-11-22T04:47:38;7.70;84.80
41437;DHT22;27178;49.460;10.850;2023-11-22T04:50:08;7.70;84.60
41437;DHT22;27178;49.460;10.850;2023-11-22T04:52:39;7.70;84.80
41437;DHT22;27178;49.460;10.850;2023-11-22T04:55:08;7.70;84.80
41437;DHT22;27178;49.460;10.850;2023-11-22T04:57:36;7.70;85.10
41437;DHT22;27178;49.460;10.850;2023-11-22T05:00:06;7.70;84.60
41437;DHT22;27178;49.460;10.850;2023-11-22T05:02:34;7.70;84.90
41437;DHT22;27178;49.460;10.850;2023-11-22T05:05:03;7.70;85.00
41437;DHT22;27178;49.460;10.850;2023-11-22T05:07:32;7.70;85.20
41437;DHT22;27178;49.460;10.850;2023-11-22T05:10:03;7.70;85.10
41437;DHT22;27178;49.460;10.850;2023-11-22T05:12:31;7.70;85.10
41437;DHT22;27178;49.460;10.850;2023-11-22T05:15:00;7.70;85.30
41437;DHT22;27178;49.460;10.850;2023-11-22T05:17:28;7.70;85.40
41437;DHT22;27178;49.460;10.850;2023-11-22T05:19:57;7.70;85.30
41437;DHT22;27178;49.460;10.850;2023-11-22T05:22:25;7.60;85.20
41437;DHT22;27178;49.460;10.850;2023-11-22T05:24:54;7.70;85.30
41437;DHT22;27178;49.460;10.850;2023-11-22T05:27:24;7.60;85.10
41437;DHT22;27178;49.460;10.850;2023-11-22T05:29:53;7.60;85.30
41437;DHT22;27178;49.460;10.850;2023-11-22T05:32:21;7.60;85.20
41437;DHT22;27178;49.460;10.850;2023-11-22T05:34:50;7.60;85.50
41437;DHT22;27178;49.460;10.850;2023-11-22T05:37:19;7.60;85.30
41437;DHT22;27178;49.460;10.850;2023-11-22T05:39:50;7.60;85.40
41437;DHT22;27178;49.460;10.850;2023-11-22T05:42:19;7.60;85.50
41437;DHT22;27178;49.460;10.850;2023-11-22T05:44:48;7.60;85.60
41437;DHT22;27178;49.460;10.850;2023-11-22T05:47:17;7.60;85.40
41437;DHT22;27178;49.460;10.850;2023-11-22T05:49:46;7.60;85.60
41437;DHT22;27178;49.460;10.850;2023-11-22T05:52:14;7.60;85.70
41437;DHT22;27178;49.460;10.850;2023-11-22T05:54:43;7.60;85.50
41437;DHT22;27178;49.460;10.850;2023-11-22T05:57:11;7.60;85.20
41437;DHT22;27178;49.460;10.850;2023-11-22T05:59:39;7.60;85.40
41437;DHT22;27178;49.460;10.850;2023-11-22T06:02:10;7.60;85.30
41437;DHT22;27178;49.460;10.850;2023-11-22T06:04:38;7.50;84.80
41437;DHT22;27178;49.460;10.850;2023-11-22T06:07:08;7.50;85.00
41437;DHT22;27178;49.460;10.850;2023-11-22T06:09:37;7.50;85.10
41437;DHT22;27178;49.460;10.850;2023-11-22T06:12:06;7.50;85.10
41437;DHT22;27178;49.460;10.850;2023-11-22T06:14:35;7.50;85.20
41437;DHT22;27178;49.460;10.850;2023-11-22T06:17:03;7.50;85.30
41437;DHT22;27178;49.460;10.850;2023-11-22T06:19:33;7.50;85.30
41437;DHT22;27178;49.460;10.850;2023-11-22T06:22:02;7.50;85.40
41437;DHT22;27178;49.460;10.850;2023-11-22T06:24:30;7.40;85.50
41437;DHT22;27178;49.460;10.850;2023-11-22T06:27:00;7.40;85.30
41437;DHT22;27178;49.460;10.850;2023-11-22T06:29:28;7.50;85.00
41437;DHT22;27178;49.460;10.850;2023-11-22T06:31:57;7.50;85.40
41437;DHT22;27178;49.460;10.850;2023-11-22T06:34:25;7.50;85.30
41437;DHT22;27178;49.460;10.850;2023-11-22T06:36:55;7.40;85.40
41437;DHT22;27178;49.460;10.850;2023-11-22T06:39:24;7.40;85.40
41437;DHT22;27178;49.460;10.850;2023-11-22T06:41:52;7.40;85.50
41437;DHT22;27178;49.460;10.850;2023-11-22T06:44:20;7.40;85.30
41437;DHT22;27178;49.460;10.850;2023-11-22T06:46:50;7.40;86.40
41437;DHT22;27178;49.460;10.850;2023-11-22T06:49:19;7.40;85.30
41437;DHT22;27178;49.460;10.850;2023-11-22T06:51:48;7.40;85.30
41437;DHT22;27178;49.460;10.850;2023-11-22T06:54:18;7.40;85.20
41437;DHT22;27178;49.460;10.850;2023-11-22T06:56:47;7.40;85.30
41437;DHT22;27178;49.460;10.850;2023-11-22T06:59:17;7.40;85.40
41437;DHT22;27178;49.460;10.850;2023-11-22T07:01:45;7.40;85.50
41437;DHT22;27178;49.460;10.850;2023-11-22T07:04:14;7.40;86.40
41437;DHT22;27178;49.460;10.850;2023-11-22T07:06:43;7.40;85.30
41437;DHT22;27178;49.460;10.850;2023-11-22T07:09:11;7.30;85.40
41437;DHT22;27178;49.460;10.850;2023-11-22T07:11:42;7.30;85.50
41437;DHT22;27178;49.460;10.850;2023-11-22T07:14:11;7.30;85.10
41437;DHT22;27178;49.460;10.850;2023-11-22T07:16:41;7.30;85.00
41437;DHT22;27178;49.460;10.850;2023-11-22T07:19:09;7.30;85.00
41437;DHT22;27178;49.460;10.850;2023-11-22T07:21:39;7.30;84.70
41437;DHT22;27178;49.460;10.850;2023-11-22T07:24:08;7.30;84.70
41437;DHT22;27178;49.460;10.850;2023-11-22T07:26:38;7.30;85.10
41437;DHT22;27178;49.460;10.850;2023-11-22T07:29:08;7.30;85.10
41437;DHT22;27178;49.460;10.850;2023-11-22T07:31:36;7.20;84.90
41437;DHT22;27178;49.460;10.850;2023-11-22T07:34:05;7.20;84.70
41437;DHT22;27178;49.460;10.850;2023-11-22T07:36:36;7.20;84.90
41437;DHT22;27178;49.460;10.850;2023-11-22T07:39:05;7.20;85.00
41437;DHT22;27178;49.460;10.850;2023-11-22T07:41:34;7.30;85.20
41437;DHT22;27178;49.460;10.850;2023-11-22T07:44:02;7.20;84.90
41437;DHT22;27178;49.460;10.850;2023-11-22T07:46:32;7.20;84.80
41437;DHT22;27178;49.460;10.850;2023-11-22T07:49:00;7.20;85.10
41437;DHT22;27178;49.460;10.850;2023-11-22T07:51:29;7.20;85.30
41437;DHT22;27178;49.460;10.850;2023-11-22T07:53:57;7.20;85.30
41437;DHT22;27178;49.460;10.850;2023-11-22T07:56:25;7.20;85.30
41437;DHT22;27178;49.460;10.850;2023-11-22T07:58:54;7.20;85.50
41437;DHT22;27178;49.460;10.850;2023-11-22T08:01:22;7.20;85.10
41437;DHT22;27178;49.460;10.850;2023-11-22T08:03:52;7.20;85.10
41437;DHT22;27178;49.460;10.850;2023-11-22T08:06:23;7.20;85.50
41437;DHT22;27178;49.460;10.850;2023-11-22T08:08:54;7.20;85.40
41437;DHT22;27178;49.460;10.850;2023-11-22T08:11:22;7.20;85.20
41437;DHT22;27178;49.460;10.850;2023-11-22T08:13:51;7.20;85.30
41437;DHT22;27178;49.460;10.850;2023-11-22T08:16:22;7.20;85.30
41437;DHT22;27178;49.460;10.850;2023-11-22T08:18:52;7.20;85.30
41437;DHT22;27178;49.460;10.850;2023-11-22T08:21:20;7.20;85.60
41437;DHT22;27178;49.460;10.850;2023-11-22T08:23:50;7.20;85.40
41437;DHT22;27178;49.460;10.850;2023-11-22T08:26:20;7.20;85.50
41437;DHT22;27178;49.460;10.850;2023-11-22T08:28:48;7.20;85.50
41437;DHT22;27178;49.460;10.850;2023-11-22T08:31:18;7.20;85.50
41437;DHT22;27178;49.460;10.850;2023-11-22T08:33:47;7.20;85.40
41437;DHT22;27178;49.460;10.850;2023-11-22T08:36:17;7.20;85.30
41437;DHT22;27178;49.460;10.850;2023-11-22T08:38:45;6.70;84.80
41437;DHT22;27178;49.460;10.850;2023-11-22T08:41:14;7.10;85.00
41437;DHT22;27178;49.460;10.850;2023-11-22T08:43:43;7.20;84.60
41437;DHT22;27178;49.460;10.850;2023-11-22T08:46:14;7.20;84.90
41437;DHT22;27178;49.460;10.850;2023-11-22T08:48:43;7.20;85.10
41437;DHT22;27178;49.460;10.850;2023-11-22T08:51:12;7.20;85.10
41437;DHT22;27178;49.460;10.850;2023-11-22T08:53:41;7.20;85.20
41437;DHT22;27178;49.460;10.850;2023-11-22T08:56:12;7.20;85.30
41437;DHT22;27178;49.460;10.850;2023-11-22T08:58:40;7.20;85.20
41437;DHT22;27178;49.460;10.850;2023-11-22T09:01:10;7.20;85.20
41437;DHT22;27178;49.460;10.850;2023-11-22T09:03:43;7.20;85.30
41437;DHT22;27178;49.460;10.850;2023-11-22T09:06:12;7.10;85.10
41437;DHT22;27178;49.460;10.850;2023-11-22T09:08:41;7.10;85.00
41437;DHT22;27178;49.460;10.850;2023-11-22T09:11:10;7.10;84.90
41437;DHT22;27178;49.460;10.850;2023-11-22T09:13:38;7.10;84.60
41437;DHT22;27178;49.460;10.850;2023-11-22T09:16:08;7.10;84.80
41437;DHT22;27178;49.460;10.850;2023-11-22T09:18:37;7.10;84.80
41437;DHT22;27178;49.460;10.850;2023-11-22T09:21:06;7.10;84.80
41437;DHT22;27178;49.460;10.850;2023-11-22T09:23:36;7.00;84.60
41437;DHT22;27178;49.460;10.850;2023-11-22T09:26:07;7.10;84.60
41437;DHT22;27178;49.460;10.850;2023-11-22T09:28:35;7.10;84.60
41437;DHT22;27178;49.460;10.850;2023-11-22T09:31:05;7.00;84.40
41437;DHT22;27178;49.460;10.850;2023-11-22T09:33:33;7.00;84.50
41437;DHT22;27178;49.460;10.850;2023-11-22T09:36:02;7.00;84.40
41437;DHT22;27178;49.460;10.850;2023-11-22T09:38:36;7.00;84.40
41437;DHT22;27178;49.460;10.850;2023-11-22T09:41:07;7.00;84.40
41437;DHT22;27178;49.460;10.850;2023-11-22T09:43:36;7.10;84.30
41437;DHT22;27178;49.460;10.850;2023-11-22T09:46:08;7.00;84.10
41437;DHT22;27178;49.460;10.850;2023-11-22T09:48:39;7.10;84.20
41437;DHT22;27178;49.460;10.850;2023-11-22T09:51:12;7.10;84.10
41437;DHT22;27178;49.460;10.850;2023-11-22T09:53:51;7.00;83.60
41437;DHT22;27178;49.460;10.850;2023-11-22T09:56:23;7.00;83.50
41437;DHT22;27178;49.460;10.850;2023-11-22T09:58:53;7.00;83.70
41437;DHT22;27178;49.460;10.850;2023-11-22T10:01:23;7.00;83.90
41437;DHT22;27178;49.460;10.850;2023-11-22T10:03:54;7.00;83.90
41437;DHT22;27178;49.460;10.850;2023-11-22T10:06:23;7.00;83.90
41437;DHT22;27178;49.460;10.850;2023-11-22T10:08:51;7.00;84.00
41437;DHT22;27178;49.460;10.850;2023-11-22T10:11:22;7.00;83.70
41437;DHT22;27178;49.460;10.850;2023-11-22T10:13:52;7.00;83.50
41437;DHT22;27178;49.460;10.850;2023-11-22T10:16:20;7.00;83.60
41437;DHT22;27178;49.460;10.850;2023-11-22T10:18:49;7.00;83.60
41437;DHT22;27178;49.460;10.850;2023-11-22T10:21:22;7.00;83.40
41437;DHT22;27178;49.460;10.850;2023-11-22T10:23:54;7.00;83.50
41437;DHT22;27178;49.460;10.850;2023-11-22T10:26:25;7.00;83.40
41437;DHT22;27178;49.460;10.850;2023-11-22T10:28:56;7.00;83.50
41437;DHT22;27178;49.460;10.850;2023-11-22T10:31:26;7.00;83.80
41437;DHT22;27178;49.460;10.850;2023-11-22T10:33:55;7.10;84.00
41437;DHT22;27178;49.460;10.850;2023-11-22T10:36:25;7.10;84.00
41437;DHT22;27178;49.460;10.850;2023-11-22T10:38:55;7.10;84.00
41437;DHT22;27178;49.460;10.850;2023-11-22T10:41:28;7.10;83.70
41437;DHT22;27178;49.460;10.850;2023-11-22T10:43:59;7.10;83.70
41437;DHT22;27178;49.460;10.850;2023-11-22T10:46:28;7.10;83.50
41437;DHT22;27178;49.460;10.850;2023-11-22T10:48:58;7.10;83.50
41437;DHT22;27178;49.460;10.850;2023-11-22T10:51:30;7.10;83.50
41437;DHT22;27178;49.460;10.850;2023-11-22T10:54:00;7.10;83.30
41437;DHT22;27178;49.460;10.850;2023-11-22T10:56:36;7.10;83.50
41437;DHT22;27178;49.460;10.850;2023-11-22T10:59:10;7.10;82.40
41437;DHT22;27178;49.460;10.850;2023-11-22T11:01:44;7.10;82.70
41437;DHT22;27178;49.460;10.850;2023-11-22T11:04:19;7.10;82.90
41437;DHT22;27178;49.460;10.850;2023-11-22T11:06:51;7.10;83.10
41437;DHT22;27178;49.460;10.850;2023-11-22T11:09:22;7.20;83.30
41437;DHT22;27178;49.460;10.850;2023-11-22T11:11:55;7.20;83.70
41437;DHT22;27178;49.460;10.850;2023-11-22T11:14:25;7.20;83.50
41437;DHT22;27178;49.460;10.850;2023-11-22T11:16:55;7.20;83.50
41437;DHT22;27178;49.460;10.850;2023-11-22T11:19:26;7.20;83.50
41437;DHT22;27178;49.460;10.850;2023-11-22T11:21:55;7.20;83.30
41437;DHT22;27178;49.460;10.850;2023-11-22T11:24:25;7.30;83.30
41437;DHT22;27178;49.460;10.850;2023-11-22T11:26:55;7.30;83.10
41437;DHT22;27178;49.460;10.850;2023-11-22T11:29:30;7.30;82.90
41437;DHT22;27178;49.460;10.850;2023-11-22T11:31:59;7.30;82.70
41437;DHT22;27178;49.460;10.850;2023-11-22T11:34:28;7.30;82.90
41437;DHT22;27178;49.460;10.850;2023-11-22T11:36:59;7.40;83.00
41437;DHT22;27178;49.460;10.850;2023-11-22T11:39:28;7.40;83.30
41437;DHT22;27178;49.460;10.850;2023-11-22T11:42:12;7.40;83.20
41437;DHT22;27178;49.460;10.850;2023-11-22T11:45:05;7.40;83.50
41437;DHT22;27178;49.460;10.850;2023-11-22T11:47:34;7.40;82.10
41437;DHT22;27178;49.460;10.850;2023-11-22T11:50:03;7.50;82.50
41437;DHT22;27178;49.460;10.850;2023-11-22T11:52:32;7.40;82.30
41437;DHT22;27178;49.460;10.850;2023-11-22T11:55:03;7.50;82.30
41437;DHT22;27178;49.460;10.850;2023-11-22T11:57:33;7.50;82.20
41437;DHT22;27178;49.460;10.850;2023-11-22T12:00:03;7.50;82.00
41437;DHT22;27178;49.460;10.850;2023-11-22T12:02:32;7.50;82.20
41437;DHT22;27178;49.460;10.850;2023-11-22T12:05:01;7.50;82.00
41437;DHT22;27178;49.460;10.850;2023-11-22T12:07:37;7.50;81.80
41437;DHT22;27178;49.460;10.850;2023-11-22T12:10:06;7.50;82.20
41437;DHT22;27178;49.460;10.850;2023-11-22T12:12:37;7.40;83.30
41437;DHT22;27178;49.460;10.850;2023-11-22T12:15:08;7.50;82.20
41437;DHT22;27178;49.460;10.850;2023-11-22T12:17:38;7.40;82.20
41437;DHT22;27178;49.460;10.850;2023-11-22T12:20:14;7.40;81.80
41437;DHT22;27178;49.460;10.850;2023-11-22T12:22:49;7.40;81.70
41437;DHT22;27178;49.460;10.850;2023-11-22T12:25:18;7.40;81.80
41437;DHT22;27178;49.460;10.850;2023-11-22T12:27:49;7.40;82.00
41437;DHT22;27178;49.460;10.850;2023-11-22T12:30:34;7.40;81.80
41437;DHT22;27178;49.460;10.850;2023-11-22T12:33:04;7.30;82.70
41437;DHT22;27178;49.460;10.850;2023-11-22T12:35:34;7.30;82.40
41437;DHT22;27178;49.460;10.850;2023-11-22T12:38:05;7.30;82.90
41437;DHT22;27178;49.460;10.850;2023-11-22T12:40:34;7.30;82.20
41437;DHT22;27178;49.460;10.850;2023-11-22T12:43:04;7.30;82.40
41437;DHT22;27178;49.460;10.850;2023-11-22T12:45:34;7.30;82.30
41437;DHT22;27178;49.460;10.850;2023-11-22T12:48:20;7.30;82.30
41437;DHT22;27178;49.460;10.850;2023-11-22T12:50:52;7.30;82.10
41437;DHT22;27178;49.460;10.850;2023-11-22T12:53:21;7.30;82.40
41437;DHT22;27178;49.460;10.850;2023-11-22T12:55:50;7.30;82.20
41437;DHT22;27178;49.460;10.850;2023-11-22T12:58:21;7.20;82.10
41437;DHT22;27178;49.460;10.850;2023-11-22T13:00:51;7.20;82.30
41437;DHT22;27178;49.460;10.850;2023-11-22T13:03:25;7.20;82.40
41437;DHT22;27178;49.460;10.850;2023-11-22T13:05:55;7.20;82.20
41437;DHT22;27178;49.460;10.850;2023-11-22T13:08:24;7.20;82.20
41437;DHT22;27178;49.460;10.850;2023-11-22T13:10:57;7.20;82.10
41437;DHT22;27178;49.460;10.850;2023-11-22T13:13:27;7.20;82.00
41437;DHT22;27178;49.460;10.850;2023-11-22T13:15:58;7.20;82.00
41437;DHT22;27178;49.460;10.850;2023-11-22T13:18:27;7.20;82.00
41437;DHT22;27178;49.460;10.850;2023-11-22T13:20:56;7.20;82.10
41437;DHT22;27178;49.460;10.850;2023-11-22T13:23:24;7.20;81.90
41437;DHT22;27178;49.460;10.850;2023-11-22T13:25:53;7.20;81.90
41437;DHT22;27178;49.460;10.850;2023-11-22T13:28:21;7.20;81.70
41437;DHT22;27178;49.460;10.850;2023-11-22T13:30:53;7.20;81.90
41437;DHT22;27178;49.460;10.850;2023-11-22T13:33:22;7.20;81.80
41437;DHT22;27178;49.460;10.850;2023-11-22T13:35:50;7.20;81.80
41437;DHT22;27178;49.460;10.850;2023-11-22T13:38:20;7.20;81.40
41437;DHT22;27178;49.460;10.850;2023-11-22T13:40:48;7.20;81.30
41437;DHT22;27178;49.460;10.850;2023-11-22T13:43:17;7.20;81.40
41437;DHT22;27178;49.460;10.850;2023-11-22T13:45:45;7.20;81.60
41437;DHT22;27178;49.460;10.850;2023-11-22T13:48:15;7.20;81.60
41437;DHT22;27178;49.460;10.850;2023-11-22T13:50:44;7.20;81.50
41437;DHT22;27178;49.460;10.850;2023-11-22T13:53:12;7.20;81.10
41437;DHT22;27178;49.460;10.850;2023-11-22T13:55:41;7.10;80.70
41437;DHT22;27178;49.460;10.850;2023-11-22T13:58:09;7.20;80.70
41437;DHT22;27178;49.460;10.850;2023-11-22T14:00:38;7.10;81.10
41437;DHT22;27178;49.460;10.850;2023-11-22T14:03:07;7.10;81.60
41437;DHT22;27178;49.460;10.850;2023-11-22T14:05:39;7.10;81.40
41437;DHT22;27178;49.460;10.850;2023-11-22T14:08:08;7.10;81.30
41437;DHT22;27178;49.460;10.850;2023-11-22T14:10:36;7.10;81.20
41437;DHT22;27178;49.460;10.850;2023-11-22T14:13:04;7.10;81.10
41437;DHT22;27178;49.460;10.850;2023-11-22T14:15:33;7.10;81.40
41437;DHT22;27178;49.460;10.850;2023-11-22T14:18:02;7.10;81.50
41437;DHT22;27178;49.460;10.850;2023-11-22T14:20:31;7.10;81.60
41437;DHT22;27178;49.460;10.850;2023-11-22T14:23:03;7.10;81.80
41437;DHT22;27178;49.460;10.850;2023-11-22T14:25:31;7.10;81.70
41437;DHT22;27178;49.460;10.850;2023-11-22T14:27:59;7.10;81.40
41437;DHT22;27178;49.460;10.850;2023-11-22T14:30:28;7.10;81.40
41437;DHT22;27178;49.460;10.850;2023-11-22T14:32:57;7.10;81.40
41437;DHT22;27178;49.460;10.850;2023-11-22T14:35:27;7.10;81.30
41437;DHT22;27178;49.460;10.850;2023-11-22T14:37:55;7.00;81.10
41437;DHT22;27178;49.460;10.850;2023-11-22T14:40:26;7.10;81.30
41437;DHT22;27178;49.460;10.850;2023-11-22T14:42:57;7.00;80.90
41437;DHT22;27178;49.460;10.850;2023-11-22T14:45:27;7.00;80.80
41437;DHT22;27178;49.460;10.850;2023-11-22T14:47:55;7.10;80.50
41437;DHT22;27178;49.460;10.850;2023-11-22T14:50:25;7.00;80.60
41437;DHT22;27178;49.460;10.850;2023-11-22T14:52:55;7.00;81.10
41437;DHT22;27178;49.460;10.850;2023-11-22T14:55:23;7.00;81.20
41437;DHT22;27178;49.460;10.850;2023-11-22T14:57:54;7.00;81.40
41437;DHT22;27178;49.460;10.850;2023-11-22T15:00:25;7.00;81.40
41437;DHT22;27178;49.460;10.850;2023-11-22T15:02:53;7.00;81.40
41437;DHT22;27178;49.460;10.850;2023-11-22T15:05:24;7.00;81.60
41437;DHT22;27178;49.460;10.850;2023-11-22T15:07:53;7.00;81.70
41437;DHT22;27178;49.460;10.850;2023-11-22T15:10:23;7.00;82.00
41437;DHT22;27178;49.460;10.850;2023-11-22T15:12:53;6.90;82.00
41437;DHT22;27178;49.460;10.850;2023-11-22T15:15:22;7.00;81.90
41437;DHT22;27178;49.460;10.850;2023-11-22T15:17:52;6.90;81.60
41437;DHT22;27178;49.460;10.850;2023-11-22T15:20:22;7.00;81.30
41437;DHT22;27178;49.460;10.850;2023-11-22T15:22:50;6.90;81.40
41437;DHT22;27178;49.460;10.850;2023-11-22T15:25:19;6.90;81.40
41437;DHT22;27178;49.460;10.850;2023-11-22T15:27:48;6.90;81.60
41437;DHT22;27178;49.460;10.850;2023-11-22T15:30:17;6.90;81.20
41437;DHT22;27178;49.460;10.850;2023-11-22T15:32:46;6.90;82.40
41437;DHT22;27178;49.460;10.850;2023-11-22T15:35:15;6.90;81.80
41437;DHT22;27178;49.460;10.850;2023-11-22T15:37:45;6.90;82.20
41437;DHT22;27178;49.460;10.850;2023-11-22T15:40:13;6.90;82.30
41437;DHT22;27178;49.460;10.850;2023-11-22T15:42:45;6.90;81.90
41437;DHT22;27178;49.460;10.850;2023-11-22T15:45:13;6.80;82.00